Time;durP1;ratioP1;P1;durP2;ratioP2;P2;SDS_P1;SDS_P2;PMS_P1;PMS_P2;Temp;Humidity;BMP_temperature;BMP_pressure;BME280_temperature;BME280_humidity;BME280_pressure;Samples;Min_cycle;Max_cycle;Signal;HPM_P1;HPM_P2
2022/05/19 00:02:07;;;;;;;5.43;4.90;;;15.90;99.90;;;;;;5072586;28;20455;-68
2022/05/19 00:04:35;;;;;;;5.93;5.37;;;16.00;99.90;;;;;;5072784;28;20534;-67
2022/05/19 00:07:02;;;;;;;8.23;5.40;;;16.00;99.90;;;;;;5072903;28;20888;-67
2022/05/19 00:09:30;;;;;;;6.27;5.67;;;16.00;99.90;;;;;;5072602;28;20479;-67
2022/05/19 00:11:59;;;;;;;6.03;5.37;;;16.00;99.90;;;;;;5072480;28;20455;-67
2022/05/19 00:14:31;;;;;;;6.50;5.90;;;16.00;99.90;;;;;;5072534;28;20979;-68
2022/05/19 00:16:58;;;;;;;6.43;5.50;;;16.00;99.90;;;;;;5072396;28;20967;-67
2022/05/19 00:19:26;;;;;;;6.30;5.50;;;15.80;99.90;;;;;;5072229;28;20463;-68
2022/05/19 00:21:53;;;;;;;6.40;5.80;;;15.70;99.90;;;;;;5072086;28;21036;-67
2022/05/19 00:24:21;;;;;;;7.17;6.47;;;15.50;99.90;;;;;;5072611;28;20451;-67
2022/05/19 00:26:48;;;;;;;6.83;6.23;;;15.50;99.90;;;;;;5073229;28;20802;-68
2022/05/19 00:29:15;;;;;;;7.50;6.17;;;15.50;99.90;;;;;;5072065;28;20479;-68
2022/05/19 00:31:44;;;;;;;6.33;5.73;;;15.70;99.90;;;;;;5071630;28;21018;-67
2022/05/19 00:34:11;;;;;;;9.03;6.43;;;15.60;99.90;;;;;;5072135;28;20454;-67
2022/05/19 00:36:38;;;;;;;7.30;6.43;;;15.60;99.90;;;;;;5072018;28;20848;-67
2022/05/19 00:39:05;;;;;;;10.73;5.60;;;15.60;99.90;;;;;;5071885;28;20467;-67
2022/05/19 00:41:33;;;;;;;6.10;5.50;;;15.50;99.90;;;;;;5071525;28;20885;-68
2022/05/19 00:44:01;;;;;;;5.87;5.20;;;15.40;99.90;;;;;;5071859;28;20447;-67
2022/05/19 00:46:33;;;;;;;6.63;5.37;;;15.40;99.90;;;;;;5071515;28;20459;-67
2022/05/19 00:49:05;;;;;;;7.27;5.97;;;15.40;99.90;;;;;;5071559;28;20483;-67
2022/05/19 00:51:41;;;;;;;6.00;5.37;;;15.40;99.90;;;;;;5071526;28;20447;-67
2022/05/19 00:54:12;;;;;;;6.40;5.27;;;15.40;99.90;;;;;;5070822;28;20447;-67
2022/05/19 00:56:45;;;;;;;7.80;5.50;;;15.40;99.90;;;;;;5071231;28;20963;-67
2022/05/19 00:59:14;;;;;;;6.00;5.40;;;15.40;99.90;;;;;;5071732;28;20764;-67
2022/05/19 01:01:44;;;;;;;10.60;5.83;;;15.50;99.90;;;;;;5071128;28;20455;-67
2022/05/19 01:04:25;;;;;;;6.67;4.90;;;15.40;99.90;;;;;;5071579;28;20446;-67
2022/05/19 01:06:55;;;;;;;4.90;4.40;;;15.40;99.90;;;;;;5071586;28;20530;-67
2022/05/19 01:09:22;;;;;;;6.30;5.37;;;15.50;99.90;;;;;;5071234;28;20867;-67
2022/05/19 01:11:54;;;;;;;5.37;4.83;;;15.50;99.90;;;;;;5071007;28;20459;-66
2022/05/19 01:14:21;;;;;;;6.60;4.70;;;15.40;99.90;;;;;;5071365;28;20450;-66
2022/05/19 01:16:48;;;;;;;5.73;5.13;;;15.40;99.90;;;;;;5071283;28;20465;-66
2022/05/19 01:19:35;;;;;;;5.00;4.50;;;15.40;99.90;;;;;;5071133;28;20514;-66
2022/05/19 01:22:09;;;;;;;5.10;4.50;;;15.40;99.90;;;;;;5070821;28;20451;-66
2022/05/19 01:24:44;;;;;;;5.73;4.63;;;15.40;99.90;;;;;;5071258;28;20451;-67
2022/05/19 01:27:12;;;;;;;7.90;5.53;;;15.30;99.90;;;;;;5070930;28;21051;-66
2022/05/19 01:29:39;;;;;;;5.63;5.00;;;15.30;99.90;;;;;;5070565;28;20497;-66
2022/05/19 01:32:21;;;;;;;7.53;5.20;;;15.20;99.90;;;;;;5070613;28;20486;-66
2022/05/19 01:34:48;;;;;;;6.40;5.80;;;15.20;99.90;;;;;;5071036;28;20442;-66
2022/05/19 01:37:15;;;;;;;6.73;5.40;;;15.10;99.90;;;;;;5071000;28;20442;-67
2022/05/19 01:39:46;;;;;;;5.50;5.00;;;15.10;99.90;;;;;;5070878;28;20470;-66
2022/05/19 01:42:29;;;;;;;6.87;5.67;;;15.10;99.90;;;;;;5070916;28;20455;-66
2022/05/19 01:45:05;;;;;;;5.47;4.97;;;15.10;99.90;;;;;;5070737;28;20814;-66
2022/05/19 01:47:39;;;;;;;5.70;5.20;;;14.90;99.90;;;;;;5070824;28;20446;-66
2022/05/19 01:50:12;;;;;;;7.53;5.50;;;14.80;99.90;;;;;;5070196;28;20561;-66
2022/05/19 01:52:46;;;;;;;6.27;5.03;;;14.80;99.90;;;;;;5070602;28;20443;-66
2022/05/19 01:55:19;;;;;;;6.13;5.53;;;14.70;99.90;;;;;;5070297;28;20945;-66
2022/05/19 01:57:52;;;;;;;6.70;5.43;;;14.60;99.90;;;;;;5070653;28;20867;-66
2022/05/19 02:00:21;;;;;;;5.80;5.20;;;14.60;99.90;;;;;;5070002;28;20463;-66
2022/05/19 02:02:53;;;;;;;5.97;5.47;;;14.60;99.90;;;;;;5070060;28;20462;-66
2022/05/19 02:05:30;;;;;;;5.90;5.30;;;14.60;99.90;;;;;;5069982;28;20449;-65
2022/05/19 02:08:01;;;;;;;5.87;5.37;;;14.60;99.90;;;;;;5070599;28;20451;-66
2022/05/19 02:10:31;;;;;;;7.60;5.63;;;14.60;99.90;;;;;;5069788;28;20483;-66
2022/05/19 02:13:02;;;;;;;6.03;5.43;;;14.50;99.90;;;;;;5070331;28;20534;-66
2022/05/19 02:15:32;;;;;;;5.77;5.17;;;14.50;99.90;;;;;;5070105;28;20455;-66
2022/05/19 02:17:59;;;;;;;6.10;5.50;;;14.50;99.90;;;;;;5069991;28;20491;-67
2022/05/19 02:20:28;;;;;;;6.90;5.13;;;14.40;99.90;;;;;;5069859;28;20459;-66
2022/05/19 02:22:56;;;;;;;4.80;4.20;;;14.30;99.90;;;;;;5070177;28;20455;-66
2022/05/19 02:25:26;;;;;;;5.60;5.10;;;14.20;99.90;;;;;;5069950;28;20961;-66
2022/05/19 02:27:57;;;;;;;7.57;4.97;;;14.20;99.90;;;;;;5070294;28;20449;-66
2022/05/19 02:30:28;;;;;;;7.93;5.57;;;14.20;99.90;;;;;;5069427;28;20490;-66
2022/05/19 02:32:55;;;;;;;5.90;5.40;;;14.10;99.90;;;;;;5069813;28;20455;-67
2022/05/19 02:35:22;;;;;;;8.30;5.30;;;14.10;99.90;;;;;;5069910;28;20447;-67
2022/05/19 02:37:50;;;;;;;5.63;5.13;;;14.10;99.90;;;;;;5069882;28;20446;-66
2022/05/19 02:40:20;;;;;;;8.20;5.30;;;14.10;99.90;;;;;;5069702;28;20475;-66
2022/05/19 02:42:47;;;;;;;6.50;5.27;;;14.00;99.90;;;;;;5069626;28;20761;-66
2022/05/19 02:45:18;;;;;;;6.03;5.37;;;14.00;99.90;;;;;;5069774;28;20442;-66
2022/05/19 02:47:47;;;;;;;5.87;5.20;;;14.10;99.90;;;;;;5070213;28;20451;-66
2022/05/19 02:50:16;;;;;;;6.83;5.53;;;14.10;99.90;;;;;;5069728;28;20489;-67
2022/05/19 02:52:43;;;;;;;6.60;5.40;;;14.00;99.90;;;;;;5069934;28;20451;-66
2022/05/19 02:55:10;;;;;;;5.70;5.07;;;13.90;99.90;;;;;;5069919;28;20941;-66
2022/05/19 02:57:37;;;;;;;5.33;4.83;;;13.90;99.90;;;;;;5069939;28;20462;-66
2022/05/19 03:00:07;;;;;;;7.40;6.20;;;13.90;99.90;;;;;;5069873;28;20482;-66
2022/05/19 03:02:34;;;;;;;6.43;5.70;;;13.90;99.90;;;;;;5069881;28;20949;-66
2022/05/19 03:05:03;;;;;;;9.87;5.77;;;13.70;99.90;;;;;;5069878;28;20450;-66
2022/05/19 03:07:29;;;;;;;8.40;6.27;;;13.70;99.90;;;;;;5069833;28;20455;-66
2022/05/19 03:09:56;;;;;;;6.53;5.10;;;13.70;99.90;;;;;;5069318;28;20486;-66
2022/05/19 03:12:23;;;;;;;7.40;5.80;;;13.60;99.90;;;;;;5069525;28;20453;-66
2022/05/19 03:14:50;;;;;;;7.20;5.70;;;13.50;99.90;;;;;;5069846;28;20525;-66
2022/05/19 03:17:17;;;;;;;7.60;6.80;;;13.40;99.90;;;;;;5069618;28;20846;-66
2022/05/19 03:19:44;;;;;;;6.93;6.27;;;13.40;99.90;;;;;;5073162;28;20467;-64
2022/05/19 03:22:12;;;;;;;8.07;6.30;;;13.40;99.90;;;;;;5073493;28;20855;-65
2022/05/19 03:24:38;;;;;;;8.00;7.20;;;13.30;99.90;;;;;;5073036;28;20450;-66
2022/05/19 03:27:06;;;;;;;8.23;6.37;;;13.30;99.90;;;;;;5070315;28;20466;-66
2022/05/19 03:29:33;;;;;;;8.20;6.80;;;13.20;99.90;;;;;;5073190;28;20466;-66
2022/05/19 03:32:00;;;;;;;6.27;5.67;;;13.20;99.90;;;;;;5072892;28;20533;-66
2022/05/19 03:34:27;;;;;;;7.87;6.83;;;13.10;99.90;;;;;;5073179;28;20455;-66
2022/05/19 03:36:54;;;;;;;8.40;6.67;;;13.10;99.90;;;;;;5073278;28;20446;-66
2022/05/19 03:39:23;;;;;;;8.00;6.10;;;13.00;99.90;;;;;;5072800;28;20494;-66
2022/05/19 03:41:50;;;;;;;7.70;6.90;;;13.00;99.90;;;;;;5072962;28;20466;-66
2022/05/19 03:44:17;;;;;;;10.47;7.10;;;13.00;99.90;;;;;;5072933;28;20454;-66
2022/05/19 03:46:44;;;;;;;8.00;6.43;;;12.90;99.90;;;;;;5072997;28;20968;-66
2022/05/19 03:49:13;;;;;;;9.03;7.23;;;12.80;99.90;;;;;;5072943;28;20463;-66
2022/05/19 03:51:41;;;;;;;10.07;7.37;;;12.80;99.90;;;;;;5072031;28;20478;-66
2022/05/19 03:54:08;;;;;;;7.73;6.83;;;12.80;99.90;;;;;;5072791;28;20446;-66
2022/05/19 03:56:37;;;;;;;7.80;7.00;;;12.80;99.90;;;;;;5072861;28;20451;-68
2022/05/19 03:59:04;;;;;;;9.77;7.07;;;12.80;99.90;;;;;;5072304;28;20550;-68
2022/05/19 04:01:32;;;;;;;10.00;6.90;;;12.80;99.90;;;;;;5071316;28;21030;-68
2022/05/19 04:04:00;;;;;;;8.17;7.07;;;12.80;99.90;;;;;;5072431;28;20447;-68
2022/05/19 04:06:27;;;;;;;7.60;6.90;;;12.90;99.90;;;;;;5072286;28;20447;-68
2022/05/19 04:08:54;;;;;;;8.67;7.20;;;12.90;99.90;;;;;;5072507;28;20473;-68
2022/05/19 04:11:21;;;;;;;9.10;6.60;;;13.00;99.90;;;;;;5072041;28;20487;-68
2022/05/19 04:13:49;;;;;;;7.63;6.83;;;13.00;99.90;;;;;;5073025;28;20458;-68
2022/05/19 04:16:15;;;;;;;8.00;7.20;;;13.00;99.90;;;;;;5072589;28;20530;-68
2022/05/19 04:18:42;;;;;;;6.90;6.20;;;13.10;99.90;;;;;;5072942;28;20471;-68
2022/05/19 04:21:09;;;;;;;8.33;6.70;;;13.20;99.90;;;;;;5072195;28;20814;-67
2022/05/19 04:23:36;;;;;;;8.13;6.23;;;13.40;99.90;;;;;;5072457;28;20447;-67
2022/05/19 04:26:03;;;;;;;9.47;6.97;;;13.50;99.90;;;;;;5072283;28;20553;-69
2022/05/19 04:28:30;;;;;;;6.87;6.27;;;13.50;99.90;;;;;;5071770;28;20470;-67
2022/05/19 04:30:58;;;;;;;7.40;6.70;;;13.50;99.90;;;;;;5071517;28;20475;-67
2022/05/19 04:33:25;;;;;;;7.50;6.80;;;13.60;99.90;;;;;;5070917;28;20956;-66
2022/05/19 04:35:51;;;;;;;7.03;6.00;;;13.70;99.90;;;;;;5067552;28;20455;-67
2022/05/19 04:38:19;;;;;;;8.23;6.20;;;13.80;99.90;;;;;;5071298;28;20447;-67
2022/05/19 04:40:48;;;;;;;8.17;6.37;;;13.80;99.90;;;;;;5069728;28;20812;-67
2022/05/19 04:43:19;;;;;;;7.23;5.77;;;13.90;99.90;;;;;;5083777;28;20447;-66
2022/05/19 04:45:47;;;;;;;7.20;6.40;;;14.10;99.90;;;;;;5065652;28;21026;-65
2022/05/19 04:48:15;;;;;;;6.73;6.10;;;14.30;99.90;;;;;;5069324;28;20452;-67
2022/05/19 04:50:42;;;;;;;8.73;7.63;;;14.40;99.90;;;;;;5066086;28;20485;-66
2022/05/19 04:53:10;;;;;;;10.00;6.60;;;14.40;99.90;;;;;;5067436;28;20833;-67
2022/05/19 04:55:37;;;;;;;7.50;6.17;;;14.40;99.90;;;;;;5069968;28;20474;-66
2022/05/19 04:58:05;;;;;;;8.00;7.13;;;14.50;99.90;;;;;;5071295;28;20523;-66
2022/05/19 05:00:32;;;;;;;7.37;5.67;;;14.60;99.90;;;;;;5071199;28;20522;-66
2022/05/19 05:02:58;;;;;;;6.60;6.00;;;14.70;99.90;;;;;;5069618;28;20443;-67
2022/05/19 05:05:27;;;;;;;6.70;6.10;;;14.80;99.90;;;;;;5070326;28;20452;-67
2022/05/19 05:07:54;;;;;;;7.47;6.33;;;14.90;99.90;;;;;;5071126;28;20512;-66
2022/05/19 05:10:21;;;;;;;9.63;6.70;;;15.00;99.90;;;;;;5067679;28;20861;-66
2022/05/19 05:12:48;;;;;;;6.97;6.27;;;15.10;99.90;;;;;;5071173;28;20533;-68
2022/05/19 05:15:15;;;;;;;8.80;6.43;;;15.20;99.90;;;;;;5071042;28;20509;-65
2022/05/19 05:17:42;;;;;;;6.90;6.30;;;15.40;99.90;;;;;;5069983;28;20447;-65
2022/05/19 05:20:12;;;;;;;6.83;6.13;;;15.50;99.90;;;;;;5069956;28;20462;-66
2022/05/19 05:22:41;;;;;;;6.20;5.70;;;15.60;99.90;;;;;;5069266;28;20455;-66
2022/05/19 05:25:10;;;;;;;6.70;6.10;;;15.70;99.90;;;;;;5069050;28;20529;-66
2022/05/19 05:27:37;;;;;;;8.63;6.37;;;15.70;99.90;;;;;;5069134;28;20458;-66
2022/05/19 05:30:06;;;;;;;7.60;6.90;;;15.80;99.90;;;;;;5068871;28;20473;-65
2022/05/19 05:32:34;;;;;;;8.00;6.27;;;15.90;99.90;;;;;;5069253;28;20447;-65
2022/05/19 05:35:01;;;;;;;8.53;6.80;;;15.90;99.90;;;;;;5069341;28;20453;-70
2022/05/19 05:37:28;;;;;;;7.17;6.47;;;16.10;99.90;;;;;;5070894;28;20447;-67
2022/05/19 05:39:56;;;;;;;7.90;6.60;;;16.10;99.90;;;;;;5069219;28;20475;-66
2022/05/19 05:42:23;;;;;;;7.33;6.60;;;16.20;99.90;;;;;;5070047;28;20944;-66
2022/05/19 05:44:50;;;;;;;8.47;5.50;;;16.30;99.90;;;;;;5070892;28;20451;-66
2022/05/19 05:47:17;;;;;;;5.90;5.30;;;16.40;99.90;;;;;;5070981;28;20452;-66
2022/05/19 05:49:44;;;;;;;7.40;6.00;;;16.40;99.90;;;;;;5070607;28;20463;-66
2022/05/19 05:52:10;;;;;;;6.73;6.10;;;16.50;99.90;;;;;;5070638;28;20485;-68
2022/05/19 05:54:37;;;;;;;6.37;5.60;;;16.60;99.90;;;;;;5070826;28;20961;-66
2022/05/19 05:57:06;;;;;;;6.73;6.10;;;16.70;99.90;;;;;;5070789;28;20895;-67
2022/05/19 05:59:33;;;;;;;7.97;5.70;;;16.80;99.90;;;;;;5070581;28;20554;-67
2022/05/19 06:02:00;;;;;;;6.50;5.90;;;16.90;99.90;;;;;;5070371;28;20833;-67
2022/05/19 06:04:26;;;;;;;7.57;6.00;;;17.00;99.90;;;;;;5070741;28;20443;-66
2022/05/19 06:06:53;;;;;;;5.33;4.77;;;17.10;99.90;;;;;;5070673;28;20469;-67
2022/05/19 06:09:20;;;;;;;7.40;6.20;;;17.20;99.90;;;;;;5070811;28;20554;-67
2022/05/19 06:11:47;;;;;;;6.60;5.67;;;17.20;99.90;;;;;;5070135;28;20491;-67
2022/05/19 06:14:15;;;;;;;9.13;5.20;;;17.30;99.90;;;;;;5070488;28;20451;-67
2022/05/19 06:16:42;;;;;;;6.37;4.70;;;17.40;99.90;;;;;;5070199;28;20447;-67
2022/05/19 06:19:09;;;;;;;12.77;5.53;;;17.60;99.90;;;;;;5070071;28;20471;-67
2022/05/19 06:21:37;;;;;;;5.90;5.23;;;17.60;99.90;;;;;;5070181;28;20450;-66
2022/05/19 06:24:08;;;;;;;5.50;4.70;;;17.70;99.90;;;;;;5070232;28;20443;-67
2022/05/19 06:26:35;;;;;;;6.97;4.03;;;17.80;99.90;;;;;;5070214;28;20470;-67
2022/05/19 06:29:02;;;;;;;5.57;4.27;;;17.90;99.90;;;;;;5069936;28;20475;-67
2022/05/19 06:31:31;;;;;;;6.63;4.43;;;18.00;99.90;;;;;;5069694;28;20479;-67
2022/05/19 06:33:59;;;;;;;4.47;4.07;;;18.20;99.90;;;;;;5069866;28;20802;-67
2022/05/19 06:36:26;;;;;;;5.80;3.93;;;18.30;99.90;;;;;;5069903;28;20447;-67
2022/05/19 06:38:53;;;;;;;4.83;3.83;;;18.30;99.90;;;;;;5069928;28;20467;-67
2022/05/19 06:44:05;;;;;;;4.80;4.27;;;18.60;99.90;;;;;;5069861;28;20939;-67
2022/05/19 06:46:33;;;;;;;4.83;4.33;;;18.70;99.90;;;;;;5069847;28;20440;-67
2022/05/19 06:49:02;;;;;;;5.40;4.17;;;18.90;99.90;;;;;;5069824;28;20546;-67
2022/05/19 06:51:29;;;;;;;4.63;3.70;;;19.00;99.90;;;;;;5069434;28;20528;-67
2022/05/19 06:53:56;;;;;;;4.40;3.90;;;19.10;99.90;;;;;;5069694;28;20553;-67
2022/05/19 06:56:23;;;;;;;4.07;3.40;;;19.20;99.90;;;;;;5069761;28;20833;-67
2022/05/19 06:58:51;;;;;;;4.20;3.43;;;19.40;99.90;;;;;;5069508;28;20547;-67
2022/05/19 07:01:18;;;;;;;4.80;3.80;;;19.60;99.90;;;;;;5069324;28;20465;-67
2022/05/19 07:03:46;;;;;;;6.03;3.73;;;19.70;99.90;;;;;;5069610;28;20452;-68
2022/05/19 07:06:13;;;;;;;5.40;3.80;;;19.80;99.90;;;;;;5069683;28;20974;-67
2022/05/19 07:08:40;;;;;;;7.20;3.90;;;19.80;99.90;;;;;;5069464;28;20558;-67
2022/05/19 07:11:24;;;;;;;4.70;3.87;;;20.00;99.90;;;;;;5069046;28;20977;-67
2022/05/19 07:13:51;;;;;;;7.40;4.20;;;20.10;99.90;;;;;;5069608;28;20490;-67
2022/05/19 07:16:18;;;;;;;5.00;3.90;;;20.20;99.90;;;;;;5069477;28;20815;-67
2022/05/19 07:18:47;;;;;;;6.33;4.40;;;20.40;99.90;;;;;;5069466;28;20550;-68
2022/05/19 07:21:12;;;;;;;7.43;4.30;;;20.60;99.90;;;;;;5069162;28;20449;-67
2022/05/19 07:23:40;;;;;;;6.87;4.07;;;20.70;99.90;;;;;;5069572;28;20514;-67
2022/05/19 07:26:07;;;;;;;5.77;3.60;;;20.80;99.90;;;;;;5069365;28;20213;-67
2022/05/19 07:28:34;;;;;;;5.07;4.20;;;20.90;99.90;;;;;;5069507;28;20471;-67
2022/05/19 07:31:01;;;;;;;7.90;3.60;;;21.00;99.90;;;;;;5068843;28;20996;-67
2022/05/19 07:33:28;;;;;;;4.70;4.20;;;21.20;99.90;;;;;;5069418;28;20473;-67
2022/05/19 07:35:57;;;;;;;5.10;4.23;;;21.40;99.90;;;;;;5069287;28;20443;-67
2022/05/19 07:38:23;;;;;;;4.73;3.63;;;21.50;99.90;;;;;;5069123;28;20566;-67
2022/05/19 07:40:54;;;;;;;5.37;3.63;;;21.60;99.90;;;;;;5068617;28;20557;-67
2022/05/19 07:43:41;;;;;;;6.87;3.83;;;21.80;99.90;;;;;;5063596;28;21008;-68
2022/05/19 07:46:10;;;;;;;5.40;3.73;;;21.80;99.90;;;;;;5057326;28;20462;-68
2022/05/19 07:48:38;;;;;;;5.87;4.30;;;21.90;99.90;;;;;;5058372;28;20478;-68
2022/05/19 07:51:07;;;;;;;8.37;4.13;;;22.00;99.90;;;;;;5062123;28;20510;-68
2022/05/19 07:53:34;;;;;;;12.17;4.83;;;22.00;99.90;;;;;;5065743;28;20451;-68
2022/05/19 07:56:01;;;;;;;11.03;4.17;;;22.10;99.90;;;;;;5062845;28;20444;-68
2022/05/19 07:58:29;;;;;;;5.40;3.80;;;22.30;99.90;;;;;;5065651;28;21257;-68
2022/05/19 08:00:56;;;;;;;6.87;4.13;;;22.40;99.90;;;;;;5060905;28;20482;-68
2022/05/19 08:03:24;;;;;;;6.93;4.70;;;22.40;99.90;;;;;;5068739;28;20508;-68
2022/05/19 08:05:52;;;;;;;4.73;4.27;;;22.50;99.90;;;;;;5072379;28;20447;-66
2022/05/19 08:08:21;;;;;;;6.30;4.03;;;22.70;99.90;;;;;;5072219;28;20447;-68
2022/05/19 08:10:48;;;;;;;4.63;3.97;;;22.80;99.90;;;;;;5065518;28;20956;-67
2022/05/19 08:15:59;;;;;;;6.30;4.00;;;23.00;99.90;;;;;;5069555;28;20417;-69
2022/05/19 08:18:26;;;;;;;5.20;4.23;;;23.20;99.90;;;;;;5071998;28;20520;-68
2022/05/19 08:20:57;;;;;;;6.57;3.70;;;23.40;99.90;;;;;;5072186;28;20443;-67
2022/05/19 08:23:27;;;;;;;6.00;4.53;;;23.50;99.90;;;;;;5072737;28;20447;-68
2022/05/19 08:25:55;;;;;;;4.33;3.43;;;23.70;99.90;;;;;;5072451;28;20454;-67
2022/05/19 08:28:29;;;;;;;7.70;4.33;;;23.80;99.90;;;;;;5072497;28;20554;-68
2022/05/19 08:30:58;;;;;;;5.27;3.83;;;23.80;99.90;;;;;;5071499;28;20447;-67
2022/05/19 08:33:25;;;;;;;4.43;4.00;;;23.90;99.90;;;;;;5069854;28;20436;-66
2022/05/19 08:35:52;;;;;;;11.77;4.30;;;24.20;99.90;;;;;;5072050;28;20444;-65
2022/05/19 08:38:20;;;;;;;5.73;3.97;;;24.30;99.90;;;;;;5069646;28;20614;-65
2022/05/19 08:40:53;;;;;;;6.40;4.20;;;24.40;99.90;;;;;;5066098;28;20454;-65
2022/05/19 08:43:24;;;;;;;8.20;4.40;;;24.60;99.90;;;;;;5067671;28;20446;-67
2022/05/19 08:45:55;;;;;;;7.30;4.90;;;24.80;99.90;;;;;;5067100;28;20936;-67
2022/05/19 08:48:24;;;;;;;4.40;3.90;;;24.90;99.90;;;;;;5070661;28;20455;-65
2022/05/19 08:50:56;;;;;;;5.23;4.27;;;25.10;99.90;;;;;;5069524;28;20454;-66
2022/05/19 08:53:24;;;;;;;5.97;3.77;;;25.30;99.30;;;;;;5068201;28;20490;-65
2022/05/19 08:55:55;;;;;;;5.80;3.93;;;25.50;99.90;;;;;;5070423;28;20467;-64
2022/05/19 08:58:43;;;;;;;8.50;4.10;;;25.90;99.90;;;;;;5050253;28;20468;-65
2022/05/19 09:01:16;;;;;;;6.47;4.43;;;26.10;99.90;;;;;;5050378;28;20456;-66
2022/05/19 09:03:59;;;;;;;4.47;4.07;;;26.30;99.80;;;;;;5050327;28;20455;-66
2022/05/19 09:07:56;;;;;;;4.60;4.00;;;26.50;97.70;;;;;;5050312;28;20452;-66
2022/05/19 09:09:41;;;;;;;5.37;4.00;;;26.80;98.30;;;;;;5063556;28;20893;-66
2022/05/19 09:12:14;;;;;;;12.73;5.03;;;27.00;96.10;;;;;;5070331;28;20474;-67
2022/05/19 09:14:41;;;;;;;4.43;3.73;;;27.30;98.40;;;;;;5070081;28;20461;-66
2022/05/19 09:17:11;;;;;;;5.10;3.80;;;27.20;95.90;;;;;;5069684;28;20454;-66
2022/05/19 09:19:41;;;;;;;5.10;4.00;;;27.20;95.30;;;;;;5070648;28;20578;-66
2022/05/19 09:22:12;;;;;;;5.73;4.00;;;27.20;94.60;;;;;;5070262;28;20444;-67
2022/05/19 09:24:39;;;;;;;5.90;4.20;;;27.30;96.00;;;;;;5071074;28;20449;-67
2022/05/19 09:27:07;;;;;;;5.23;3.93;;;27.40;96.20;;;;;;5070141;28;20961;-66
2022/05/19 09:29:40;;;;;;;6.77;3.80;;;27.50;95.80;;;;;;5070543;28;20463;-67
2022/05/19 09:32:13;;;;;;;4.77;3.60;;;27.80;97.30;;;;;;5069510;28;20518;-72
2022/05/19 09:34:43;;;;;;;5.17;3.83;;;28.20;96.50;;;;;;5070446;28;20446;-67
2022/05/19 09:37:14;;;;;;;7.30;4.53;;;28.40;94.60;;;;;;5069995;28;20451;-67
2022/05/19 09:39:47;;;;;;;4.43;4.03;;;28.70;94.20;;;;;;5070053;28;20470;-66
2022/05/19 09:42:19;;;;;;;5.90;3.90;;;29.00;94.30;;;;;;5069878;28;21004;-66
2022/05/19 09:44:51;;;;;;;4.40;4.00;;;28.80;91.20;;;;;;5070212;28;20500;-66
2022/05/19 09:47:24;;;;;;;5.47;4.00;;;29.00;91.20;;;;;;5069838;28;20937;-66
2022/05/19 09:50:02;;;;;;;7.40;4.37;;;29.00;91.00;;;;;;5069785;28;20466;-65
2022/05/19 09:52:32;;;;;;;6.03;4.10;;;29.60;88.20;;;;;;5070153;28;20478;-67
2022/05/19 09:55:02;;;;;;;5.40;4.00;;;29.60;87.10;;;;;;5067225;28;20487;-66
2022/05/19 09:57:37;;;;;;;10.07;4.30;;;30.20;87.60;;;;;;5068669;28;20535;-67
2022/05/19 10:00:18;;;;;;;5.70;3.90;;;30.40;87.60;;;;;;5066417;28;20460;-67
2022/05/19 10:02:46;;;;;;;4.60;4.00;;;30.60;87.60;;;;;;5065248;28;20455;-67
2022/05/19 10:05:31;;;;;;;5.10;3.73;;;31.10;85.80;;;;;;5070222;28;20508;-67
2022/05/19 10:08:05;;;;;;;4.37;3.23;;;31.80;84.80;;;;;;5067515;28;20457;-67
2022/05/19 10:10:35;;;;;;;4.83;3.17;;;32.30;83.70;;;;;;5065386;28;20453;-68
2022/05/19 10:13:08;;;;;;;4.17;3.67;;;33.30;80.90;;;;;;5068062;28;20870;-67
2022/05/19 10:15:50;;;;;;;5.73;3.33;;;34.00;79.20;;;;;;5066582;28;20521;-68
2022/05/19 10:18:27;;;;;;;7.10;3.10;;;34.20;79.70;;;;;;5068022;28;20867;-67
2022/05/19 10:21:07;;;;;;;4.90;3.60;;;34.70;76.00;;;;;;5068539;28;20447;-67
2022/05/19 10:23:51;;;;;;;4.83;3.47;;;35.30;73.90;;;;;;5066830;28;20447;-67
2022/05/19 10:26:35;;;;;;;4.80;3.77;;;35.50;69.80;;;;;;5067245;28;20451;-68
2022/05/19 10:32:40;;;;;;;7.20;3.57;;;35.80;65.50;;;;;;5069297;28;20483;-67
2022/05/19 10:35:15;;;;;;;7.83;4.17;;;35.40;70.30;;;;;;5068097;28;20449;-67
2022/05/19 10:37:55;;;;;;;4.37;3.20;;;35.40;68.10;;;;;;5069832;28;20932;-67
2022/05/19 10:40:36;;;;;;;6.87;4.40;;;35.60;67.60;;;;;;5069937;28;20999;-66
2022/05/19 10:43:17;;;;;;;5.73;3.40;;;36.00;67.40;;;;;;5070227;28;20445;-67
2022/05/19 10:45:48;;;;;;;4.13;3.20;;;36.20;65.40;;;;;;5069650;28;20445;-67
2022/05/19 10:48:41;;;;;;;4.53;3.27;;;36.30;61.10;;;;;;5059383;28;20455;-67
2022/05/19 10:51:12;;;;;;;7.27;3.60;;;36.50;65.00;;;;;;5066141;28;20458;-67
2022/05/19 10:54:10;;;;;;;3.63;3.20;;;35.90;63.10;;;;;;5068010;28;20478;-67
2022/05/19 10:56:49;;;;;;;3.33;2.93;;;36.40;64.60;;;;;;5067497;28;20554;-67
2022/05/19 10:59:32;;;;;;;5.03;3.60;;;36.50;62.20;;;;;;5066748;28;20463;-67
2022/05/19 11:02:14;;;;;;;6.47;3.77;;;36.30;62.40;;;;;;5065024;28;21096;-67
2022/05/19 11:05:17;;;;;;;4.63;3.77;;;36.80;59.10;;;;;;5066472;28;20447;-67
2022/05/19 11:07:53;;;;;;;6.10;4.37;;;36.60;61.10;;;;;;5066732;28;20446;-67
2022/05/19 11:10:27;;;;;;;4.53;3.63;;;36.80;62.60;;;;;;5066623;28;20477;-66
2022/05/19 11:13:02;;;;;;;4.83;4.03;;;36.80;59.80;;;;;;5066126;28;20497;-67
2022/05/19 11:15:38;;;;;;;4.30;3.90;;;37.00;61.80;;;;;;5068526;28;20439;-67
2022/05/19 11:18:12;;;;;;;5.17;3.47;;;36.90;60.00;;;;;;5063712;28;20893;-67
2022/05/19 11:20:48;;;;;;;5.10;3.70;;;37.20;55.90;;;;;;5068355;28;20477;-67
2022/05/19 11:23:22;;;;;;;4.77;3.20;;;37.20;58.20;;;;;;5067914;28;20883;-68
2022/05/19 11:28:44;;;;;;;4.63;4.10;;;37.40;62.40;;;;;;5059751;28;20636;-68
2022/05/19 11:31:15;;;;;;;4.80;3.60;;;37.20;58.20;;;;;;5066751;28;20441;-67
2022/05/19 11:33:47;;;;;;;5.20;3.67;;;37.20;62.40;;;;;;5061657;28;20847;-66
2022/05/19 11:36:20;;;;;;;6.10;3.47;;;37.10;58.10;;;;;;5059555;28;20995;-67
2022/05/19 11:38:57;;;;;;;4.33;3.83;;;35.90;56.20;;;;;;5067038;28;20521;-67
2022/05/19 11:41:28;;;;;;;8.93;4.20;;;35.90;57.70;;;;;;5065314;28;20450;-66
2022/05/19 11:44:00;;;;;;;7.10;4.40;;;35.80;58.20;;;;;;5068819;28;20986;-67
2022/05/19 11:46:33;;;;;;;6.07;4.10;;;36.60;59.50;;;;;;5067672;28;20567;-67
2022/05/19 11:57:33;;;;;;;8.40;5.17;;;36.90;53.10;;;;;;5069215;28;20446;-67
2022/05/19 12:00:04;;;;;;;8.87;5.60;;;35.90;55.70;;;;;;5071077;28;20474;-67
2022/05/19 12:02:37;;;;;;;7.00;4.43;;;35.60;57.10;;;;;;5070972;28;21020;-67
2022/05/19 12:05:10;;;;;;;7.83;4.50;;;35.50;57.40;;;;;;5071520;28;20442;-67
2022/05/19 12:07:51;;;;;;;7.53;4.80;;;35.30;58.20;;;;;;5068323;28;20450;-67
2022/05/19 12:10:23;;;;;;;5.00;3.83;;;35.10;57.70;;;;;;5066601;28;21251;-67
2022/05/19 12:12:57;;;;;;;5.87;3.63;;;35.00;58.30;;;;;;5068422;28;20483;-67
2022/05/19 12:15:27;;;;;;;7.33;3.70;;;35.80;61.40;;;;;;5064942;28;20451;-67
2022/05/19 12:17:58;;;;;;;3.90;3.60;;;36.60;58.50;;;;;;5067197;28;20479;-70
2022/05/19 12:20:45;;;;;;;5.20;3.57;;;37.00;55.00;;;;;;5067151;28;20952;-67
2022/05/19 12:23:26;;;;;;;4.40;3.77;;;36.80;55.20;;;;;;5061705;28;20451;-68
2022/05/19 12:25:55;;;;;;;5.40;4.00;;;36.70;56.40;;;;;;5063720;28;20870;-67
2022/05/19 12:28:31;;;;;;;4.80;3.77;;;36.90;56.40;;;;;;5070650;28;20522;-67
2022/05/19 12:33:56;;;;;;;4.07;3.67;;;37.80;57.60;;;;;;5069593;28;21057;-67
2022/05/19 12:36:36;;;;;;;4.63;4.03;;;37.30;54.70;;;;;;5070685;28;20443;-67
2022/05/19 12:39:30;;;;;;;4.50;3.93;;;36.40;54.50;;;;;;5065858;28;20512;-67
2022/05/19 12:42:11;;;;;;;4.83;4.20;;;36.10;56.70;;;;;;5050895;28;20458;-67
2022/05/19 12:44:44;;;;;;;4.80;3.83;;;36.40;60.50;;;;;;5070872;28;20458;-67
2022/05/19 12:47:17;;;;;;;4.40;3.70;;;36.50;59.30;;;;;;5070542;28;20463;-67
2022/05/19 12:50:27;;;;;;;5.37;3.83;;;37.10;57.00;;;;;;5071210;28;20467;-66
2022/05/19 12:53:01;;;;;;;5.50;4.23;;;37.90;56.80;;;;;;5070592;28;20859;-67
2022/05/19 12:55:33;;;;;;;6.77;3.90;;;38.50;55.60;;;;;;5069406;28;20461;-68
2022/05/19 12:58:39;;;;;;;13.13;5.00;;;39.30;57.70;;;;;;5068076;28;20492;-68
2022/05/19 13:01:13;;;;;;;4.90;3.97;;;38.90;50.70;;;;;;5068109;28;20459;-67
2022/05/19 13:03:42;;;;;;;5.23;3.77;;;37.50;53.20;;;;;;5070421;28;20439;-67
2022/05/19 13:06:13;;;;;;;7.23;3.77;;;37.90;57.80;;;;;;5070227;28;20525;-67
2022/05/19 13:08:43;;;;;;;4.90;4.10;;;37.80;53.20;;;;;;5070972;28;20464;-68
2022/05/19 13:11:13;;;;;;;4.40;3.83;;;38.20;55.40;;;;;;5066469;28;21017;-68
2022/05/19 13:13:43;;;;;;;6.83;4.30;;;38.70;56.10;;;;;;5070678;28;20479;-67
2022/05/19 13:16:18;;;;;;;6.60;4.00;;;39.00;56.70;;;;;;5070593;28;20447;-67
2022/05/19 13:18:50;;;;;;;8.63;4.53;;;39.70;53.90;;;;;;5071160;28;21043;-67
2022/05/19 13:21:23;;;;;;;5.93;3.93;;;39.90;53.10;;;;;;5070801;28;20448;-67
2022/05/19 13:23:51;;;;;;;4.60;4.20;;;39.80;52.60;;;;;;5071445;28;20439;-67
2022/05/19 13:26:24;;;;;;;6.70;4.00;;;39.10;50.60;;;;;;5070968;28;20451;-67
2022/05/19 13:31:54;;;;;;;5.30;4.00;;;39.50;53.30;;;;;;5070637;28;20831;-66